Time;durP1;ratioP1;P1;durP2;ratioP2;P2;SDS_P1;SDS_P2;PMS_P1;PMS_P2;Temp;Humidity;BMP_temperature;BMP_pressure;BME280_temperature;BME280_humidity;BME280_pressure;Samples;Min_cycle;Max_cycle;Signal;HPM_P1;HPM_P2
2021/05/02 00:01:15;;;;;;;12.13;10.90;;;;;;;15.25;84.06;99302.58;1800699;78;21070;-62
2021/05/02 00:03:44;;;;;;;12.78;11.35;;;;;;;15.27;84.02;99297.11;1798894;79;21121;-62
2021/05/02 00:06:12;;;;;;;12.60;10.88;;;;;;;15.27;83.89;99301.17;1813073;78;21655;-60
2021/05/02 00:08:41;;;;;;;14.25;11.00;;;;;;;15.27;83.86;99304.43;1823835;78;21014;-63
2021/05/02 00:11:11;;;;;;;12.47;11.28;;;;;;;15.30;83.76;99305.20;1798909;79;22334;-62
2021/05/02 00:13:40;;;;;;;12.82;11.33;;;;;;;15.34;83.78;99306.80;1798841;79;21061;-63
2021/05/02 00:16:09;;;;;;;15.70;12.23;;;;;;;15.32;83.44;99305.72;1799279;78;21140;-62
2021/05/02 00:18:37;;;;;;;11.68;10.38;;;;;;;15.31;83.38;99298.69;1799091;78;21176;-61
2021/05/02 00:21:08;;;;;;;12.47;11.30;;;;;;;15.33;83.20;99295.15;1812617;78;21129;-62
2021/05/02 00:23:37;;;;;;;18.85;12.53;;;;;;;15.33;83.13;99292.44;1799641;78;21416;-61
2021/05/02 00:26:05;;;;;;;18.00;11.08;;;;;;;15.37;83.14;99285.34;1802669;78;21109;-63
2021/05/02 00:28:35;;;;;;;12.73;11.08;;;;;;;15.44;83.01;99277.67;1801710;78;21609;-62
2021/05/02 00:31:06;;;;;;;15.28;11.70;;;;;;;15.45;82.74;99273.84;1801706;78;21132;-62
2021/05/02 00:33:35;;;;;;;13.72;11.43;;;;;;;15.42;82.90;99261.43;1802301;78;21261;-60
2021/05/02 00:36:05;;;;;;;16.42;13.48;;;;;;;15.35;83.28;99256.36;1802459;78;21187;-62
2021/05/02 00:38:37;;;;;;;13.98;11.33;;;;;;;15.33;83.59;99256.41;1803946;78;21565;-63
2021/05/02 00:41:15;;;;;;;14.73;13.27;;;;;;;15.35;83.60;99253.65;1802541;78;21010;-64
2021/05/02 00:43:58;;;;;;;12.85;11.55;;;;;;;15.32;83.69;99253.43;1826209;78;21168;-63
2021/05/02 00:46:39;;;;;;;12.55;10.32;;;;;;;15.28;83.69;99236.95;1833424;78;21163;-63
2021/05/02 00:49:18;;;;;;;12.60;11.30;;;;;;;15.27;83.78;99240.22;1834497;78;21282;-61
2021/05/02 00:51:47;;;;;;;14.40;11.93;;;;;;;15.25;83.91;99235.62;1813396;78;21157;-63
2021/05/02 00:54:18;;;;;;;16.70;12.05;;;;;;;15.20;84.16;99234.33;1819953;78;21141;-63
2021/05/02 00:57:08;;;;;;;18.20;13.98;;;;;;;15.17;84.39;99236.83;1787855;80;21127;-64
2021/05/02 01:00:09;;;;;;;20.30;12.40;;;;;;;15.11;84.77;99229.86;1807008;78;21106;-63
2021/05/02 01:02:37;;;;;;;24.35;12.47;;;;;;;15.06;85.06;99223.18;1806993;78;21353;-62
2021/05/02 01:05:07;;;;;;;12.88;11.60;;;;;;;15.00;85.15;99222.97;1787821;78;21137;-63
2021/05/02 01:07:42;;;;;;;18.15;13.80;;;;;;;14.97;85.17;99228.41;1787956;80;21137;-62
2021/05/02 01:10:18;;;;;;;13.80;11.50;;;;;;;14.97;85.32;99228.41;1788063;78;21102;-66
2021/05/02 01:12:52;;;;;;;16.48;12.82;;;;;;;15.03;85.23;99228.61;1819020;78;21133;-62
2021/05/02 01:15:24;;;;;;;13.32;11.97;;;;;;;15.03;85.03;99230.51;1818813;78;22276;-65
2021/05/02 01:18:07;;;;;;;11.28;10.18;;;;;;;15.00;85.07;99231.10;1820137;78;21030;-66
2021/05/02 01:20:38;;;;;;;10.48;9.23;;;;;;;14.95;85.34;99231.97;1806046;78;21110;-65
2021/05/02 01:23:19;;;;;;;12.73;10.80;;;;;;;14.93;85.38;99225.22;1790907;78;21542;-63
2021/05/02 01:25:47;;;;;;;10.85;9.70;;;;;;;14.89;85.57;99221.48;1793458;78;21153;-63
2021/05/02 01:28:14;;;;;;;13.45;12.05;;;;;;;14.90;85.72;99229.32;1787078;79;21364;-63
2021/05/02 01:30:42;;;;;;;15.18;11.60;;;;;;;14.95;85.78;99225.74;1816455;78;21138;-63
2021/05/02 01:33:10;;;;;;;11.28;10.15;;;;;;;14.99;85.74;99220.81;1813776;79;21145;-62
2021/05/02 01:35:39;;;;;;;13.98;11.25;;;;;;;15.05;85.63;99218.84;1791074;79;20967;-62
2021/05/02 01:38:07;;;;;;;12.25;10.93;;;;;;;15.02;85.63;99216.70;1784254;80;21149;-63
2021/05/02 01:40:36;;;;;;;9.48;8.18;;;;;;;14.98;85.83;99216.48;1784509;79;21070;-62
2021/05/02 01:43:05;;;;;;;10.58;9.68;;;;;;;14.95;86.33;99210.30;1784955;79;21129;-63
2021/05/02 01:45:33;;;;;;;11.55;10.32;;;;;;;14.95;86.43;99210.85;1797022;79;21007;-63
2021/05/02 01:48:05;;;;;;;13.08;11.00;;;;;;;14.96;86.55;99213.28;1784479;79;20990;-64
2021/05/02 01:50:46;;;;;;;10.40;9.50;;;;;;;14.95;86.68;99208.14;1784250;80;21177;-62
2021/05/02 01:53:14;;;;;;;9.83;8.83;;;;;;;14.93;86.92;99206.26;1793770;79;21150;-64
2021/05/02 01:55:42;;;;;;;11.18;9.80;;;;;;;14.91;87.04;99206.56;1784765;79;21035;-62
2021/05/02 01:58:10;;;;;;;10.32;8.85;;;;;;;14.93;87.25;99200.84;1784284;80;21034;-60
2021/05/02 02:00:59;;;;;;;9.65;8.65;;;;;;;14.92;87.41;99212.22;1784314;80;21555;-64
2021/05/02 02:03:27;;;;;;;10.93;9.73;;;;;;;14.90;87.63;99207.66;1785004;79;20999;-62
2021/05/02 02:05:55;;;;;;;10.13;9.13;;;;;;;14.82;88.36;99210.98;1790079;79;21374;-61
2021/05/02 02:08:22;;;;;;;12.80;8.68;;;;;;;14.74;88.76;99208.92;1784102;80;21146;-64
2021/05/02 02:10:52;;;;;;;9.25;8.15;;;;;;;14.69;89.53;99199.51;1798337;79;21153;-61
2021/05/02 02:13:20;;;;;;;9.98;8.90;;;;;;;14.64;90.14;99203.63;1751884;80;21761;-63
2021/05/02 02:15:48;;;;;;;9.83;8.80;;;;;;;14.61;90.33;99202.86;1764894;80;21093;-63
2021/05/02 02:18:17;;;;;;;10.43;8.85;;;;;;;14.55;91.10;99199.40;1780485;80;21295;-62
2021/05/02 02:20:51;;;;;;;8.55;7.47;;;;;;;14.53;91.20;99197.52;1780717;80;21506;-62
2021/05/02 02:23:31;;;;;;;11.15;7.90;;;;;;;14.56;91.33;99185.33;1769334;80;21171;-62
2021/05/02 02:26:32;;;;;;;9.33;7.35;;;;;;;14.59;91.60;99191.50;1765580;79;21128;-62
2021/05/02 02:29:00;;;;;;;7.80;6.97;;;;;;;14.61;91.50;99193.39;1779414;80;21097;-61
2021/05/02 02:31:34;;;;;;;10.72;7.75;;;;;;;14.57;92.02;99202.64;1750591;80;21376;-62
2021/05/02 02:34:07;;;;;;;;;;;;;;;14.51;92.38;99197.56;1783226;80;21172;-61
2021/05/02 02:36:35;;;;;;;7.85;7.05;;;;;;;14.49;92.73;99192.42;1779803;79;20147;-63
2021/05/02 02:39:04;;;;;;;6.78;6.08;;;;;;;14.50;92.85;99194.59;1750133;80;21565;-62
2021/05/02 02:41:39;;;;;;;7.40;6.70;;;;;;;14.50;92.96;99194.59;1751406;80;21594;-62
2021/05/02 02:44:09;;;;;;;7.10;6.40;;;;;;;14.49;93.20;99196.48;1761418;80;21201;-62
2021/05/02 02:46:44;;;;;;;8.10;7.30;;;;;;;14.53;93.16;99193.45;1756500;80;21221;-61
2021/05/02 02:49:11;;;;;;;8.25;6.53;;;;;;;14.51;93.15;99187.55;1749701;82;21072;-62
2021/05/02 02:51:41;;;;;;;7.33;6.53;;;;;;;14.51;93.03;99184.84;1731377;82;21636;-67
2021/05/02 02:54:11;;;;;;;8.08;6.00;;;;;;;14.57;92.95;99182.88;1757688;80;21152;-62
2021/05/02 02:56:43;;;;;;;10.00;7.17;;;;;;;14.60;92.68;99185.81;1748116;81;21597;-62
2021/05/02 02:59:19;;;;;;;7.40;6.60;;;;;;;14.59;92.59;99170.66;1731497;82;21136;-63
2021/05/02 03:01:49;;;;;;;8.40;6.08;;;;;;;14.65;92.56;99170.06;1750720;81;21552;-62
2021/05/02 03:04:18;;;;;;;6.17;5.58;;;;;;;14.72;92.21;99168.60;1744367;81;21130;-64
2021/05/02 03:06:46;;;;;;;5.97;5.37;;;;;;;14.81;91.93;99166.08;1736886;81;21661;-62
2021/05/02 03:09:16;;;;;;;7.10;5.85;;;;;;;14.89;91.55;99168.13;1731390;82;21180;-62
2021/05/02 03:11:44;;;;;;;8.28;7.03;;;;;;;14.95;91.02;99168.33;1731351;82;21822;-66
2021/05/02 03:14:12;;;;;;;7.15;6.25;;;;;;;14.96;90.66;99165.89;1703386;82;21149;-62
2021/05/02 03:16:41;;;;;;;9.18;7.15;;;;;;;14.98;90.26;99169.64;1785144;79;21223;-62
2021/05/02 03:19:26;;;;;;;10.30;7.65;;;;;;;14.95;90.14;99170.23;1788709;79;21081;-62
2021/05/02 03:22:12;;;;;;;8.80;7.08;;;;;;;14.97;90.17;99172.08;1816683;79;21590;-62
2021/05/02 03:24:43;;;;;;;11.28;7.17;;;;;;;15.00;89.92;99165.55;1805365;78;21902;-62
2021/05/02 03:27:21;;;;;;;6.67;5.17;;;;;;;15.00;89.73;99173.69;1800436;77;21130;-62
2021/05/02 03:29:51;;;;;;;7.20;6.37;;;;;;;14.98;89.83;99183.98;1785649;80;21659;-62
2021/05/02 03:32:24;;;;;;;6.40;5.80;;;;;;;14.91;89.94;99179.49;1789694;79;21513;-63
2021/05/02 03:34:54;;;;;;;6.37;5.78;;;;;;;14.84;90.40;99183.09;1802993;79;23292;-63
2021/05/02 03:37:24;;;;;;;7.28;5.70;;;;;;;14.82;90.56;99184.72;1759946;80;21181;-62
2021/05/02 03:39:54;;;;;;;8.60;6.70;;;;;;;14.83;90.75;99180.11;1734184;82;21077;-61
2021/05/02 03:42:22;;;;;;;9.55;6.67;;;;;;;14.79;90.86;99186.66;1732386;81;21220;-61
2021/05/02 03:44:50;;;;;;;5.53;4.85;;;;;;;14.81;90.95;99183.13;1716088;81;21124;-62
2021/05/02 03:47:19;;;;;;;8.20;5.95;;;;;;;14.85;90.91;99175.23;1721381;82;21376;-60
2021/05/02 03:49:47;;;;;;;6.22;5.62;;;;;;;14.87;90.88;99171.66;1732320;81;21866;-62
2021/05/02 03:52:15;;;;;;;8.35;6.40;;;;;;;14.87;90.86;99168.95;1734266;82;21132;-62
2021/05/02 03:54:44;;;;;;;7.40;5.70;;;;;;;14.89;90.98;99165.97;1743419;81;21189;-62
2021/05/02 03:57:12;;;;;;;6.60;5.92;;;;;;;14.90;90.99;99168.94;1811082;79;21121;-64
2021/05/02 03:59:41;;;;;;;6.30;5.60;;;;;;;14.92;90.97;99174.31;1796253;79;22065;-63
2021/05/02 04:02:08;;;;;;;6.47;5.50;;;;;;;14.93;90.95;99178.63;1755952;80;20987;-71
2021/05/02 04:04:37;;;;;;;5.70;5.17;;;;;;;14.91;91.02;99178.14;1734151;82;21278;-63
2021/05/02 04:07:07;;;;;;;8.45;5.62;;;;;;;14.93;91.12;99182.70;1770889;80;21137;-61
2021/05/02 04:09:39;;;;;;;6.60;5.92;;;;;;;14.94;91.06;99187.02;1784359;80;21109;-62
2021/05/02 04:12:09;;;;;;;7.80;6.28;;;;;;;14.98;90.99;99188.59;1784293;80;21364;-64
2021/05/02 04:14:37;;;;;;;6.60;6.03;;;;;;;15.02;90.87;99187.72;1790307;79;21070;-62
2021/05/02 04:17:11;;;;;;;6.70;5.95;;;;;;;15.03;90.58;99185.82;1790610;79;21129;-64
2021/05/02 04:19:43;;;;;;;7.33;6.62;;;;;;;15.00;90.68;99181.81;1784408;80;21165;-62
2021/05/02 04:22:13;;;;;;;6.10;4.55;;;;;;;15.01;90.84;99175.84;1784289;80;21102;-63
2021/05/02 04:24:45;;;;;;;10.48;4.80;;;;;;;15.04;90.94;99172.00;1785673;79;21370;-62
2021/05/02 04:27:13;;;;;;;6.67;5.28;;;;;;;15.10;90.94;99172.73;1782677;80;21444;-61
2021/05/02 04:29:41;;;;;;;8.28;6.15;;;;;;;15.13;90.63;99170.25;1780670;79;21109;-61
2021/05/02 04:32:09;;;;;;;8.53;5.70;;;;;;;15.14;90.61;99164.28;1787886;79;21142;-63
2021/05/02 04:34:38;;;;;;;7.53;5.60;;;;;;;15.17;90.66;99162.33;1809478;79;21132;-63
2021/05/02 04:37:06;;;;;;;8.33;6.87;;;;;;;15.24;90.62;99160.88;1809116;79;21189;-61
2021/05/02 06:49:05;;;;;;;12.25;6.90;;;;;;;16.89;84.74;99111.25;1883397;76;22652;-64
2021/05/02 06:51:34;;;;;;;8.55;7.17;;;;;;;16.91;84.29;99104.97;1854674;77;20983;-67
2021/05/02 06:54:06;;;;;;;8.25;6.95;;;;;;;17.02;84.06;99104.75;1809897;78;22351;-66
2021/05/02 06:56:34;;;;;;;6.97;6.05;;;;;;;17.06;82.91;99103.83;1820964;78;21198;-65
2021/05/02 06:59:02;;;;;;;8.83;7.03;;;;;;;17.13;82.95;99106.91;1800491;78;20971;-64
2021/05/02 07:01:32;;;;;;;8.95;7.33;;;;;;;17.14;82.41;99104.44;1820931;78;20983;-65
2021/05/02 07:04:00;;;;;;;9.95;6.83;;;;;;;17.18;82.38;99106.79;1809683;77;20989;-67
2021/05/02 07:06:32;;;;;;;8.98;7.33;;;;;;;17.24;82.40;99110.20;1853293;77;22753;-67
2021/05/02 07:09:00;;;;;;;9.88;6.70;;;;;;;17.28;82.25;99114.71;1821407;77;20967;-66
2021/05/02 07:11:30;;;;;;;12.88;6.78;;;;;;;17.34;82.27;99123.55;1848268;77;21530;-67
2021/05/02 07:13:58;;;;;;;11.33;7.35;;;;;;;17.42;81.94;99126.33;1857661;77;21105;-66
2021/05/02 07:16:25;;;;;;;10.80;8.38;;;;;;;17.43;81.18;99135.30;1857730;77;21462;-66
2021/05/02 07:18:55;;;;;;;8.58;7.55;;;;;;;17.40;81.00;99138.09;1813349;77;21161;-66
2021/05/02 07:21:23;;;;;;;13.22;9.35;;;;;;;17.44;80.90;99158.11;1821282;77;21142;-67
2021/05/02 07:23:52;;;;;;;9.00;7.53;;;;;;;17.43;80.91;99152.41;1836384;77;21518;-66
2021/05/02 07:26:22;;;;;;;8.45;7.42;;;;;;;17.42;80.98;99152.71;1800155;77;21581;-67
2021/05/02 07:28:50;;;;;;;11.97;7.90;;;;;;;17.45;81.02;99129.01;1834816;77;21610;-67
2021/05/02 07:31:18;;;;;;;9.35;7.83;;;;;;;17.50;80.65;99126.72;1853037;77;21340;-70
2021/05/02 07:33:45;;;;;;;9.63;7.78;;;;;;;17.53;79.95;99131.53;1801422;77;21296;-65
2021/05/02 07:36:13;;;;;;;15.32;9.28;;;;;;;17.56;79.40;99130.90;1832203;77;21113;-66
2021/05/02 07:38:42;;;;;;;17.00;8.55;;;;;;;17.52;79.21;99130.72;1803440;78;21195;-66
2021/05/02 07:41:11;;;;;;;13.83;9.10;;;;;;;17.51;79.60;99133.73;1821009;78;21128;-66
2021/05/02 07:43:40;;;;;;;11.78;7.90;;;;;;;17.51;79.72;99133.19;1821552;77;21191;-65
2021/05/02 07:46:08;;;;;;;11.55;8.60;;;;;;;17.57;79.61;99142.84;1828811;77;21176;-66
2021/05/02 07:48:36;;;;;;;16.93;10.43;;;;;;;17.64;79.66;99135.65;1820740;78;21542;-66
2021/05/02 07:51:05;;;;;;;11.73;9.30;;;;;;;17.74;79.13;99129.41;1827167;77;21153;-67
2021/05/02 07:53:33;;;;;;;9.15;7.50;;;;;;;17.74;78.46;99115.00;1827426;77;21097;-66
2021/05/02 07:56:02;;;;;;;14.28;9.10;;;;;;;17.75;78.41;99113.86;1823837;77;21366;-66
2021/05/02 07:58:30;;;;;;;11.53;8.20;;;;;;;17.76;78.32;99116.28;1811558;79;21193;-67
2021/05/02 08:00:58;;;;;;;13.55;8.05;;;;;;;17.73;77.72;99115.55;1838593;77;21140;-66
2021/05/02 08:03:27;;;;;;;13.43;8.10;;;;;;;17.74;77.72;99117.17;1835877;77;21105;-66
2021/05/02 08:05:56;;;;;;;14.87;9.05;;;;;;;17.80;77.50;99126.78;1817095;77;21215;-66
2021/05/02 08:08:24;;;;;;;16.25;8.55;;;;;;;17.77;77.19;99119.81;1820448;77;21149;-65
2021/05/02 08:10:54;;;;;;;15.10;8.90;;;;;;;17.71;77.67;99117.77;1853634;77;21014;-67
2021/05/02 08:13:21;;;;;;;19.95;9.15;;;;;;;17.71;77.55;99116.96;1835322;77;21577;-67
2021/05/02 08:15:49;;;;;;;9.48;8.18;;;;;;;17.73;77.51;99117.47;1781107;77;21196;-67
2021/05/02 08:18:17;;;;;;;16.27;9.28;;;;;;;17.75;77.46;99113.86;1840036;77;21205;-66
2021/05/02 08:20:45;;;;;;;15.70;10.58;;;;;;;17.74;77.58;99116.36;1822754;77;22489;-67
2021/05/02 08:23:12;;;;;;;9.70;7.28;;;;;;;17.70;77.34;99113.44;1816764;77;21141;-66
2021/05/02 08:25:39;;;;;;;10.45;7.53;;;;;;;17.72;77.35;99114.49;1786743;79;21562;-66
2021/05/02 08:28:07;;;;;;;20.15;9.95;;;;;;;17.71;77.59;99106.08;1789415;79;21019;-66
2021/05/02 08:30:35;;;;;;;13.98;9.98;;;;;;;17.71;77.80;99105.53;1796685;79;21117;-67
2021/05/02 08:33:05;;;;;;;14.18;9.48;;;;;;;17.76;77.73;99103.23;1766469;80;21212;-67
2021/05/02 08:35:33;;;;;;;15.25;10.82;;;;;;;17.76;77.39;99099.96;1789544;79;21165;-66
2021/05/02 08:38:00;;;;;;;13.30;9.45;;;;;;;17.81;77.15;99094.95;1789716;80;21098;-66
2021/05/02 08:40:29;;;;;;;21.25;10.55;;;;;;;17.85;76.60;99093.20;1789614;80;21157;-66
2021/05/02 08:43:04;;;;;;;15.48;10.55;;;;;;;17.86;76.32;99088.02;1807454;79;21228;-66
2021/05/02 08:45:34;;;;;;;10.50;9.30;;;;;;;17.88;76.32;99099.39;1781514;80;21019;-67
2021/05/02 08:48:05;;;;;;;15.50;9.48;;;;;;;17.82;76.61;99096.00;1815329;78;21121;-67
2021/05/02 08:50:33;;;;;;;16.67;9.60;;;;;;;17.82;76.77;99078.32;1758408;80;21046;-67
2021/05/02 08:53:06;;;;;;;16.05;12.65;;;;;;;17.85;76.71;99079.59;1818424;78;21109;-66
2021/05/02 08:55:34;;;;;;;10.80;8.03;;;;;;;17.85;76.89;99083.67;1819824;78;21086;-67
2021/05/02 08:58:03;;;;;;;13.85;9.13;;;;;;;17.92;76.82;99089.48;1761884;80;21165;-64
2021/05/02 09:00:31;;;;;;;10.53;9.50;;;;;;;17.99;76.65;99089.83;1819691;78;21102;-65
2021/05/02 09:02:58;;;;;;;13.55;8.78;;;;;;;18.06;76.45;99083.95;1773409;80;21192;-65
2021/05/02 09:05:27;;;;;;;20.15;9.83;;;;;;;18.06;76.24;99087.47;1787078;80;21152;-66
2021/05/02 09:07:55;;;;;;;17.20;12.23;;;;;;;18.12;76.14;99076.70;1750973;80;21638;-65
2021/05/02 09:10:27;;;;;;;22.77;12.18;;;;;;;18.13;75.58;99070.12;1765337;81;21149;-65
2021/05/02 09:13:00;;;;;;;18.70;12.95;;;;;;;18.13;75.54;99067.98;1689375;81;21153;-67
2021/05/02 09:15:31;;;;;;;16.55;9.78;;;;;;;18.13;75.27;99052.43;1769760;80;21122;-65
2021/05/02 09:20:52;;;;;;;14.30;9.75;;;;;;;18.22;74.79;99050.53;1849720;76;22047;-65
2021/05/02 09:23:18;;;;;;;17.50;11.35;;;;;;;18.16;74.74;99043.66;1819831;78;20989;-66
2021/05/02 09:25:53;;;;;;;13.60;11.95;;;;;;;18.14;74.63;99043.70;1818954;78;21180;-66
2021/05/02 09:28:56;;;;;;;13.13;11.35;;;;;;;18.09;74.97;99046.57;1819335;78;22023;-66
2021/05/02 09:31:28;;;;;;;14.15;10.68;;;;;;;18.03;75.36;99050.02;1819759;78;20966;-67
2021/05/02 09:34:14;;;;;;;15.48;10.45;;;;;;;18.03;75.48;99043.21;1767102;80;21025;-66
2021/05/02 09:37:02;;;;;;;15.60;11.80;;;;;;;18.03;75.48;99047.30;1768859;80;21102;-66
2021/05/02 09:39:48;;;;;;;14.10;9.98;;;;;;;18.05;75.65;99043.69;1751646;81;21151;-67
2021/05/02 09:42:20;;;;;;;16.50;12.45;;;;;;;18.09;75.60;99050.66;1756946;80;20978;-65
2021/05/02 09:44:55;;;;;;;14.93;11.60;;;;;;;18.08;75.50;99048.48;1756350;81;21120;-66
2021/05/02 09:47:42;;;;;;;14.23;9.35;;;;;;;18.05;75.71;99038.80;1726757;81;21014;-65
2021/05/02 09:50:18;;;;;;;20.52;12.68;;;;;;;18.09;75.83;99046.57;1757480;80;21628;-64
2021/05/02 09:52:54;;;;;;;18.95;13.18;;;;;;;18.07;75.93;99045.55;1756183;80;21249;-65
2021/05/02 09:55:29;;;;;;;18.77;11.18;;;;;;;18.04;76.32;99039.35;1787286;80;21140;-67
2021/05/02 09:58:13;;;;;;;16.07;11.00;;;;;;;18.09;76.36;99046.57;1787510;80;21080;-66
2021/05/02 10:00:55;;;;;;;16.40;11.73;;;;;;;18.11;76.31;99045.70;1780863;80;21070;-69
2021/05/02 10:03:25;;;;;;;19.30;13.00;;;;;;;18.14;76.30;99038.27;1756374;81;21141;-68
2021/05/02 10:06:06;;;;;;;10.60;8.93;;;;;;;18.19;76.14;99037.56;1726509;81;21132;-66
2021/05/02 10:08:38;;;;;;;15.90;12.30;;;;;;;18.23;75.89;99043.98;1756274;81;21147;-66
2021/05/02 10:11:08;;;;;;;15.93;11.78;;;;;;;18.21;75.64;99043.52;1767719;80;21096;-67
2021/05/02 10:13:38;;;;;;;18.57;13.13;;;;;;;18.18;75.95;99038.67;1787661;80;21584;-65
2021/05/02 10:16:07;;;;;;;17.50;11.83;;;;;;;18.15;76.26;99045.31;1787510;80;21088;-66
2021/05/02 10:18:37;;;;;;;21.45;13.30;;;;;;;18.10;76.85;99044.09;1756937;79;21168;-66
2021/05/02 10:21:07;;;;;;;14.30;11.95;;;;;;;18.04;76.97;99043.44;1786883;79;21620;-66
2021/05/02 10:23:36;;;;;;;20.82;16.10;;;;;;;17.95;77.78;99056.20;1765075;79;21171;-65
2021/05/02 10:26:05;;;;;;;20.70;14.13;;;;;;;17.78;79.09;99059.66;1790059;79;21058;-66
2021/05/02 10:28:35;;;;;;;16.40;14.07;;;;;;;17.72;79.48;99051.38;1777828;79;21122;-66
2021/05/02 10:31:06;;;;;;;24.32;17.12;;;;;;;17.65;79.85;99057.80;1764587;81;22917;-65
2021/05/02 10:33:38;;;;;;;26.90;17.60;;;;;;;17.64;80.23;99061.66;1764206;81;21112;-67
2021/05/02 10:36:12;;;;;;;30.17;17.67;;;;;;;17.64;80.71;99064.39;1764494;81;21537;-66
2021/05/02 10:38:55;;;;;;;21.62;17.42;;;;;;;17.59;81.23;99068.59;1766406;79;21187;-65
2021/05/02 10:41:33;;;;;;;24.40;15.23;;;;;;;17.55;82.29;99062.70;1764357;81;21567;-65
2021/05/02 10:44:15;;;;;;;22.80;17.20;;;;;;;17.56;82.25;99062.92;1764422;81;21228;-65
2021/05/02 10:46:57;;;;;;;23.38;15.80;;;;;;;17.53;82.67;99064.91;1764360;81;21652;-66
2021/05/02 10:49:31;;;;;;;21.52;16.75;;;;;;;17.46;83.06;99065.92;1790521;79;21013;-66
2021/05/02 10:52:29;;;;;;;29.27;17.50;;;;;;;17.41;83.37;99060.02;1769374;79;21609;-65
2021/05/02 10:55:13;;;;;;;25.05;15.15;;;;;;;17.37;83.44;99045.45;1791891;79;21124;-66
2021/05/02 10:57:41;;;;;;;21.25;15.35;;;;;;;17.36;83.04;99049.31;1795870;79;21190;-66
2021/05/02 11:00:14;;;;;;;22.62;14.00;;;;;;;17.33;82.73;99042.56;1771733;79;21169;-66
2021/05/02 11:02:47;;;;;;;17.62;12.73;;;;;;;17.35;82.22;99035.47;1764519;81;21116;-65
2021/05/02 11:05:18;;;;;;;24.00;14.23;;;;;;;17.39;81.92;99035.09;1738537;81;21041;-66
2021/05/02 11:07:47;;;;;;;17.67;13.32;;;;;;;17.40;81.68;99034.78;1766655;79;21100;-66
2021/05/02 11:10:16;;;;;;;17.48;13.93;;;;;;;17.34;82.34;99029.22;1774086;79;21200;-66
2021/05/02 11:12:46;;;;;;;18.50;14.35;;;;;;;17.39;82.37;99010.62;1795743;79;21167;-66
2021/05/02 11:15:32;;;;;;;17.82;13.60;;;;;;;17.46;82.60;99018.34;1768912;79;21017;-65
2021/05/02 11:18:01;;;;;;;22.75;15.18;;;;;;;17.47;82.84;99021.28;1795639;79;21009;-65
2021/05/02 11:20:50;;;;;;;18.07;13.78;;;;;;;17.48;82.97;99025.06;1778836;79;21195;-65
2021/05/02 11:23:24;;;;;;;23.20;16.93;;;;;;;17.53;83.18;99026.30;1722180;83;22630;-65
2021/05/02 11:25:58;;;;;;;20.77;14.63;;;;;;;17.52;83.41;99017.08;1666891;84;21188;-65
2021/05/02 11:28:56;;;;;;;22.75;15.38;;;;;;;17.52;83.31;99018.44;1668762;84;21148;-65
2021/05/02 11:31:14;;;;;;;18.35;16.30;;;;;;;17.53;83.14;99024.94;1703047;84;21195;-65
2021/05/02 11:33:43;;;;;;;21.82;14.70;;;;;;;17.57;82.51;99019.11;1704621;84;21549;-66
2021/05/02 11:36:38;;;;;;;14.65;12.95;;;;;;;17.62;82.16;99020.38;1704639;84;21573;-66
2021/05/02 11:39:07;;;;;;;19.80;12.65;;;;;;;17.65;81.86;99018.96;1731910;82;26612;-66
2021/05/02 11:42:04;;;;;;;15.68;12.35;;;;;;;17.67;81.80;99019.43;1700852;82;21069;-64
2021/05/02 11:44:34;;;;;;;17.65;10.65;;;;;;;17.70;81.72;99024.23;1733713;82;20993;-65
2021/05/02 11:47:12;;;;;;;17.30;11.35;;;;;;;17.76;81.53;99014.83;1734069;82;21194;-65
2021/05/02 11:49:41;;;;;;;16.48;12.30;;;;;;;17.83;81.44;99016.00;1734019;82;21443;-65
2021/05/02 11:52:09;;;;;;;19.65;12.05;;;;;;;17.87;81.94;99005.29;1712842;82;21194;-64
2021/05/02 11:54:46;;;;;;;13.28;10.63;;;;;;;17.89;81.66;99004.40;1704658;84;20938;-65
2021/05/02 11:57:13;;;;;;;14.65;10.50;;;;;;;17.85;80.61;98995.27;1674396;84;21215;-66
2021/05/02 11:59:49;;;;;;;14.63;9.88;;;;;;;17.81;80.93;98991.58;1684936;82;21188;-65
2021/05/02 12:02:17;;;;;;;14.87;10.38;;;;;;;17.80;80.77;98991.33;1715256;82;21204;-64
2021/05/02 12:04:44;;;;;;;17.37;9.78;;;;;;;17.84;80.96;98982.22;1704620;84;21220;-64
2021/05/02 12:07:12;;;;;;;26.62;11.80;;;;;;;17.86;80.82;98980.00;1704621;84;21156;-65
2021/05/02 12:09:42;;;;;;;19.85;11.33;;;;;;;17.86;81.06;98979.19;1714943;82;21506;-64
2021/05/02 12:12:11;;;;;;;15.85;9.68;;;;;;;17.90;81.00;98984.24;1733902;82;21133;-65
2021/05/02 12:14:39;;;;;;;14.45;9.68;;;;;;;17.93;81.32;98983.63;1734062;82;22666;-67
2021/05/02 12:17:08;;;;;;;23.47;11.80;;;;;;;17.91;81.41;98985.85;1733850;82;21053;-65
2021/05/02 12:19:37;;;;;;;21.80;10.58;;;;;;;17.90;81.86;98980.72;1724039;82;21214;-66
2021/05/02 12:22:06;;;;;;;19.02;10.78;;;;;;;17.86;82.32;98971.84;1673334;84;21037;-66
2021/05/02 12:24:35;;;;;;;15.32;11.10;;;;;;;17.84;82.09;98970.56;1673349;84;21137;-66
2021/05/02 12:27:10;;;;;;;16.75;9.75;;;;;;;17.82;82.09;98965.42;1699376;84;22266;-67
2021/05/02 12:29:39;;;;;;;12.03;8.45;;;;;;;17.77;82.55;98965.56;1680989;83;21179;-67
2021/05/02 12:32:11;;;;;;;17.32;10.38;;;;;;;17.73;83.19;98961.88;1728411;81;21522;-67
2021/05/02 12:34:49;;;;;;;19.30;12.40;;;;;;;17.72;83.35;98964.91;1728431;82;21132;-66
2021/05/02 12:37:23;;;;;;;23.18;11.22;;;;;;;17.71;84.13;98963.30;1728516;83;21156;-67
2021/05/02 12:39:53;;;;;;;16.02;10.82;;;;;;;17.69;84.29;98951.39;1699294;84;21220;-67
2021/05/02 12:42:33;;;;;;;14.83;10.00;;;;;;;17.67;84.23;98949.53;1699249;84;21557;-65
2021/05/02 12:45:01;;;;;;;11.55;9.40;;;;;;;17.65;83.85;98941.45;1699455;84;21604;-64
2021/05/02 12:47:28;;;;;;;21.60;9.28;;;;;;;17.62;83.50;98944.78;1699345;84;21136;-66
2021/05/02 12:50:02;;;;;;;13.98;9.43;;;;;;;17.59;83.47;98943.50;1727691;83;21545;-67
2021/05/02 12:52:38;;;;;;;11.70;8.28;;;;;;;17.62;83.04;98945.59;1728253;83;21267;-65
2021/05/02 12:55:29;;;;;;;13.18;7.95;;;;;;;17.58;82.37;98947.30;1728422;83;21125;-66
2021/05/02 12:57:58;;;;;;;11.12;7.12;;;;;;;17.57;81.92;98947.05;1724516;83;21109;-65
2021/05/02 13:00:37;;;;;;;11.25;8.25;;;;;;;17.61;81.34;98940.45;1699315;84;22283;-66
2021/05/02 13:06:11;;;;;;;11.10;8.55;;;;;;;17.59;81.28;98925.03;1846988;76;22705;-65
2021/05/02 13:08:39;;;;;;;11.65;8.80;;;;;;;17.54;81.39;98923.22;1816322;79;21027;-65
2021/05/02 13:11:36;;;;;;;14.83;8.20;;;;;;;17.54;81.80;98926.49;1796558;79;22201;-65
2021/05/02 13:14:21;;;;;;;15.20;8.33;;;;;;;17.50;82.06;98916.81;1785041;80;20975;-65
2021/05/02 13:16:53;;;;;;;16.15;9.88;;;;;;;17.50;82.33;98911.37;1784868;79;21011;-65
2021/05/02 13:19:24;;;;;;;11.50;9.35;;;;;;;17.44;82.85;98905.27;1775646;79;21046;-65
2021/05/02 13:21:53;;;;;;;17.37;9.13;;;;;;;17.40;83.03;98898.86;1785424;79;20967;-65
2021/05/02 13:24:22;;;;;;;11.18;8.93;;;;;;;17.39;83.31;98901.88;1817206;78;21511;-66
2021/05/02 13:26:49;;;;;;;11.15;8.18;;;;;;;17.38;83.69;98896.20;1817156;79;21566;-65
2021/05/02 13:29:18;;;;;;;14.20;10.53;;;;;;;17.39;83.91;98892.38;1796195;79;21634;-65
2021/05/02 13:31:58;;;;;;;19.75;11.53;;;;;;;17.41;84.24;98886.05;1783928;79;21121;-65
2021/05/02 13:34:37;;;;;;;13.55;9.60;;;;;;;17.38;84.75;98889.41;1752733;80;21263;-66
2021/05/02 13:37:05;;;;;;;16.42;9.70;;;;;;;17.38;84.68;98892.12;1751149;80;21161;-65
2021/05/02 13:39:34;;;;;;;16.25;10.82;;;;;;;17.40;85.03;98881.19;1722177;80;21160;-66
2021/05/02 13:42:01;;;;;;;15.93;10.38;;;;;;;17.41;86.03;98875.17;1784909;80;21093;-66
2021/05/02 13:44:30;;;;;;;14.73;9.70;;;;;;;17.40;86.12;98872.23;1784928;80;21156;-65
2021/05/02 13:46:58;;;;;;;14.73;9.13;;;;;;;17.48;86.07;98879.61;1784989;79;21161;-64
2021/05/02 13:49:28;;;;;;;15.70;9.93;;;;;;;17.60;86.06;98869.53;1785854;79;21201;-66
2021/05/02 13:51:57;;;;;;;19.50;13.18;;;;;;;17.70;85.68;98867.85;1754229;80;21145;-67
2021/05/02 13:54:24;;;;;;;11.55;8.00;;;;;;;17.72;85.66;98866.98;1784939;80;21102;-67
2021/05/02 13:56:55;;;;;;;17.90;11.30;;;;;;;17.81;85.82;98863.73;1754100;80;21141;-66
2021/05/02 13:59:24;;;;;;;21.30;11.10;;;;;;;17.88;85.78;98863.27;1804517;79;21161;-65
2021/05/02 14:01:54;;;;;;;17.95;11.40;;;;;;;17.99;85.64;98850.38;1817200;78;21180;-65